sensor_id;sensor_type;location;lat;lon;timestamp;temperature;humidity
45983;DHT22;31711;47.158;7.346;2023-09-12T00:00:01;18.20;99.90
45983;DHT22;31711;47.158;7.346;2023-09-12T00:02:29;18.10;99.90
45983;DHT22;31711;47.158;7.346;2023-09-12T00:04:55;18.10;99.90
45983;DHT22;31711;47.158;7.346;2023-09-12T00:07:21;18.10;99.90
45983;DHT22;31711;47.158;7.346;2023-09-12T00:09:47;18.10;99.90
45983;DHT22;31711;47.158;7.346;2023-09-12T00:12:16;18.10;99.90
45983;DHT22;31711;47.158;7.346;2023-09-12T00:14:42;18.00;99.90
45983;DHT22;31711;47.158;7.346;2023-09-12T00:17:09;18.10;99.90
45983;DHT22;31711;47.158;7.346;2023-09-12T00:19:35;18.00;99.90
45983;DHT22;31711;47.158;7.346;2023-09-12T00:22:01;18.10;99.90
45983;DHT22;31711;47.158;7.346;2023-09-12T00:24:27;18.20;99.90
45983;DHT22;31711;47.158;7.346;2023-09-12T00:26:53;18.20;99.90
45983;DHT22;31711;47.158;7.346;2023-09-12T00:29:19;18.20;99.90
45983;DHT22;31711;47.158;7.346;2023-09-12T00:31:45;18.20;99.90
45983;DHT22;31711;47.158;7.346;2023-09-12T00:34:16;18.20;99.90
45983;DHT22;31711;47.158;7.346;2023-09-12T00:36:42;18.10;99.90
45983;DHT22;31711;47.158;7.346;2023-09-12T00:39:08;18.10;99.90
45983;DHT22;31711;47.158;7.346;2023-09-12T00:41:34;18.10;99.90
45983;DHT22;31711;47.158;7.346;2023-09-12T00:44:00;18.10;99.90
45983;DHT22;31711;47.158;7.346;2023-09-12T00:46:27;18.10;99.90
45983;DHT22;31711;47.158;7.346;2023-09-12T00:48:56;18.20;99.90
45983;DHT22;31711;47.158;7.346;2023-09-12T00:51:24;18.20;99.90
45983;DHT22;31711;47.158;7.346;2023-09-12T00:53:51;18.20;99.90
45983;DHT22;31711;47.158;7.346;2023-09-12T00:56:17;18.10;99.90
45983;DHT22;31711;47.158;7.346;2023-09-12T00:58:44;18.10;99.90
45983;DHT22;31711;47.158;7.346;2023-09-12T01:01:11;18.10;99.90
45983;DHT22;31711;47.158;7.346;2023-09-12T01:03:37;18.10;99.90
45983;DHT22;31711;47.158;7.346;2023-09-12T01:06:05;18.10;99.90
45983;DHT22;31711;47.158;7.346;2023-09-12T01:08:32;18.20;99.90
45983;DHT22;31711;47.158;7.346;2023-09-12T01:10:58;18.20;99.90
45983;DHT22;31711;47.158;7.346;2023-09-12T01:13:24;18.20;99.90
45983;DHT22;31711;47.158;7.346;2023-09-12T01:15:50;18.20;99.90
45983;DHT22;31711;47.158;7.346;2023-09-12T01:18:16;18.20;99.90
45983;DHT22;31711;47.158;7.346;2023-09-12T01:28:28;18.20;99.90
45983;DHT22;31711;47.158;7.346;2023-09-12T01:30:58;18.30;99.90
45983;DHT22;31711;47.158;7.346;2023-09-12T01:33:26;18.30;99.90
45983;DHT22;31711;47.158;7.346;2023-09-12T01:35:52;18.30;99.90
45983;DHT22;31711;47.158;7.346;2023-09-12T01:38:18;18.40;99.90
45983;DHT22;31711;47.158;7.346;2023-09-12T01:40:48;18.30;99.90
45983;DHT22;31711;47.158;7.346;2023-09-12T01:43:17;18.40;99.90
45983;DHT22;31711;47.158;7.346;2023-09-12T01:45:45;18.40;99.90
45983;DHT22;31711;47.158;7.346;2023-09-12T01:48:13;18.40;99.90
45983;DHT22;31711;47.158;7.346;2023-09-12T01:50:44;18.40;99.90
45983;DHT22;31711;47.158;7.346;2023-09-12T01:53:10;18.40;99.90
45983;DHT22;31711;47.158;7.346;2023-09-12T01:55:37;18.40;99.90
45983;DHT22;31711;47.158;7.346;2023-09-12T01:58:03;18.40;99.90
45983;DHT22;31711;47.158;7.346;2023-09-12T02:00:29;18.40;99.90
45983;DHT22;31711;47.158;7.346;2023-09-12T02:02:56;18.30;99.90
45983;DHT22;31711;47.158;7.346;2023-09-12T02:05:22;18.30;99.90
45983;DHT22;31711;47.158;7.346;2023-09-12T02:07:49;18.30;99.90
45983;DHT22;31711;47.158;7.346;2023-09-12T02:10:15;18.30;99.90
45983;DHT22;31711;47.158;7.346;2023-09-12T02:12:41;18.30;99.90
45983;DHT22;31711;47.158;7.346;2023-09-12T02:15:07;18.40;99.90
45983;DHT22;31711;47.158;7.346;2023-09-12T02:17:34;18.40;99.90
45983;DHT22;31711;47.158;7.346;2023-09-12T02:19:59;18.50;99.90
45983;DHT22;31711;47.158;7.346;2023-09-12T02:22:25;18.40;99.90
45983;DHT22;31711;47.158;7.346;2023-09-12T02:24:51;18.40;99.90
45983;DHT22;31711;47.158;7.346;2023-09-12T02:27:17;18.50;99.90
45983;DHT22;31711;47.158;7.346;2023-09-12T02:29:43;18.50;99.90
45983;DHT22;31711;47.158;7.346;2023-09-12T02:32:10;18.50;99.90
45983;DHT22;31711;47.158;7.346;2023-09-12T02:34:35;18.50;99.90
45983;DHT22;31711;47.158;7.346;2023-09-12T02:37:01;18.40;99.90
45983;DHT22;31711;47.158;7.346;2023-09-12T02:39:27;18.40;99.90
45983;DHT22;31711;47.158;7.346;2023-09-12T02:41:54;18.40;99.90
45983;DHT22;31711;47.158;7.346;2023-09-12T02:44:19;18.40;99.90
45983;DHT22;31711;47.158;7.346;2023-09-12T02:46:46;18.40;99.90
45983;DHT22;31711;47.158;7.346;2023-09-12T02:49:12;18.40;99.90
45983;DHT22;31711;47.158;7.346;2023-09-12T02:51:38;18.30;99.90
45983;DHT22;31711;47.158;7.346;2023-09-12T02:54:04;18.30;99.90
45983;DHT22;31711;47.158;7.346;2023-09-12T02:56:30;18.20;99.90
45983;DHT22;31711;47.158;7.346;2023-09-12T02:58:57;18.20;99.90
45983;DHT22;31711;47.158;7.346;2023-09-12T03:01:23;18.10;99.90
45983;DHT22;31711;47.158;7.346;2023-09-12T03:03:53;18.00;99.90
45983;DHT22;31711;47.158;7.346;2023-09-12T03:06:20;18.00;99.90
45983;DHT22;31711;47.158;7.346;2023-09-12T03:08:47;18.00;99.90
45983;DHT22;31711;47.158;7.346;2023-09-12T03:11:13;18.00;99.90
45983;DHT22;31711;47.158;7.346;2023-09-12T03:13:41;18.00;99.90
45983;DHT22;31711;47.158;7.346;2023-09-12T03:16:14;17.90;99.90
45983;DHT22;31711;47.158;7.346;2023-09-12T03:18:40;17.80;99.90
45983;DHT22;31711;47.158;7.346;2023-09-12T03:21:06;17.70;99.90
45983;DHT22;31711;47.158;7.346;2023-09-12T03:23:32;17.70;99.90
45983;DHT22;31711;47.158;7.346;2023-09-12T03:26:05;17.60;99.90
45983;DHT22;31711;47.158;7.346;2023-09-12T03:28:32;17.50;99.90
45983;DHT22;31711;47.158;7.346;2023-09-12T03:31:10;17.60;99.90
45983;DHT22;31711;47.158;7.346;2023-09-12T03:33:43;17.50;99.90
45983;DHT22;31711;47.158;7.346;2023-09-12T03:36:13;17.50;99.90
45983;DHT22;31711;47.158;7.346;2023-09-12T03:38:39;17.50;99.90
45983;DHT22;31711;47.158;7.346;2023-09-12T03:41:05;17.20;99.90
45983;DHT22;31711;47.158;7.346;2023-09-12T03:43:32;17.30;99.90
45983;DHT22;31711;47.158;7.346;2023-09-12T03:45:58;17.30;99.90
45983;DHT22;31711;47.158;7.346;2023-09-12T03:48:25;17.30;99.90
45983;DHT22;31711;47.158;7.346;2023-09-12T03:50:51;17.30;99.90
45983;DHT22;31711;47.158;7.346;2023-09-12T03:53:17;17.40;99.90
45983;DHT22;31711;47.158;7.346;2023-09-12T03:55:43;17.30;99.90
45983;DHT22;31711;47.158;7.346;2023-09-12T03:58:09;17.20;99.90
45983;DHT22;31711;47.158;7.346;2023-09-12T04:00:35;17.30;99.90
45983;DHT22;31711;47.158;7.346;2023-09-12T04:03:01;17.20;99.90
45983;DHT22;31711;47.158;7.346;2023-09-12T04:05:27;17.10;99.90
45983;DHT22;31711;47.158;7.346;2023-09-12T04:07:53;17.10;99.90
45983;DHT22;31711;47.158;7.346;2023-09-12T04:10:22;17.20;99.90
45983;DHT22;31711;47.158;7.346;2023-09-12T04:12:48;17.20;99.90
45983;DHT22;31711;47.158;7.346;2023-09-12T04:15:14;17.30;99.90
45983;DHT22;31711;47.158;7.346;2023-09-12T04:17:40;17.40;99.90
45983;DHT22;31711;47.158;7.346;2023-09-12T04:20:06;17.40;99.90
45983;DHT22;31711;47.158;7.346;2023-09-12T04:22:33;17.40;99.90
45983;DHT22;31711;47.158;7.346;2023-09-12T04:24:59;17.50;99.90
45983;DHT22;31711;47.158;7.346;2023-09-12T04:27:25;17.50;99.90
45983;DHT22;31711;47.158;7.346;2023-09-12T04:29:51;17.50;99.90
45983;DHT22;31711;47.158;7.346;2023-09-12T04:32:17;17.60;99.90
45983;DHT22;31711;47.158;7.346;2023-09-12T04:34:51;17.60;99.90
45983;DHT22;31711;47.158;7.346;2023-09-12T04:37:17;17.70;99.90
45983;DHT22;31711;47.158;7.346;2023-09-12T04:39:45;17.70;99.90
45983;DHT22;31711;47.158;7.346;2023-09-12T04:42:11;17.70;99.90
45983;DHT22;31711;47.158;7.346;2023-09-12T04:44:40;17.80;99.90
45983;DHT22;31711;47.158;7.346;2023-09-12T04:47:07;17.80;99.90
45983;DHT22;31711;47.158;7.346;2023-09-12T04:49:33;17.80;99.90
45983;DHT22;31711;47.158;7.346;2023-09-12T04:51:59;17.80;99.90
45983;DHT22;31711;47.158;7.346;2023-09-12T04:54:25;17.80;99.90
45983;DHT22;31711;47.158;7.346;2023-09-12T04:56:51;17.80;99.90
45983;DHT22;31711;47.158;7.346;2023-09-12T04:59:17;17.80;99.90
45983;DHT22;31711;47.158;7.346;2023-09-12T05:01:43;17.90;99.90
45983;DHT22;31711;47.158;7.346;2023-09-12T05:04:09;17.80;99.90
45983;DHT22;31711;47.158;7.346;2023-09-12T05:06:36;17.80;99.90
45983;DHT22;31711;47.158;7.346;2023-09-12T05:09:02;17.80;99.90
45983;DHT22;31711;47.158;7.346;2023-09-12T05:11:28;17.90;99.90
45983;DHT22;31711;47.158;7.346;2023-09-12T05:13:54;18.00;99.90
45983;DHT22;31711;47.158;7.346;2023-09-12T05:16:20;17.90;99.90
45983;DHT22;31711;47.158;7.346;2023-09-12T05:18:46;17.90;99.90
45983;DHT22;31711;47.158;7.346;2023-09-12T05:21:15;17.90;99.90
45983;DHT22;31711;47.158;7.346;2023-09-12T05:23:41;17.80;99.90
45983;DHT22;31711;47.158;7.346;2023-09-12T05:26:07;17.80;99.90
45983;DHT22;31711;47.158;7.346;2023-09-12T05:28:34;17.70;99.90
45983;DHT22;31711;47.158;7.346;2023-09-12T05:31:00;17.70;99.90
45983;DHT22;31711;47.158;7.346;2023-09-12T05:33:26;17.70;99.90
45983;DHT22;31711;47.158;7.346;2023-09-12T05:35:51;17.70;99.90
45983;DHT22;31711;47.158;7.346;2023-09-12T05:38:17;17.60;99.90
45983;DHT22;31711;47.158;7.346;2023-09-12T05:40:44;17.70;99.90
45983;DHT22;31711;47.158;7.346;2023-09-12T05:43:10;17.70;99.90
45983;DHT22;31711;47.158;7.346;2023-09-12T05:45:36;17.70;99.90
45983;DHT22;31711;47.158;7.346;2023-09-12T05:48:02;17.60;99.90
45983;DHT22;31711;47.158;7.346;2023-09-12T05:50:28;17.70;99.90
45983;DHT22;31711;47.158;7.346;2023-09-12T05:52:54;17.80;99.90
45983;DHT22;31711;47.158;7.346;2023-09-12T05:55:20;17.80;99.90
45983;DHT22;31711;47.158;7.346;2023-09-12T05:57:48;17.80;99.90
45983;DHT22;31711;47.158;7.346;2023-09-12T06:00:18;17.80;99.90
45983;DHT22;31711;47.158;7.346;2023-09-12T06:02:45;17.80;99.90
45983;DHT22;31711;47.158;7.346;2023-09-12T06:05:11;17.80;99.90
45983;DHT22;31711;47.158;7.346;2023-09-12T06:07:37;17.90;99.90
45983;DHT22;31711;47.158;7.346;2023-09-12T06:10:05;18.00;99.90
45983;DHT22;31711;47.158;7.346;2023-09-12T06:12:31;18.00;99.90
45983;DHT22;31711;47.158;7.346;2023-09-12T06:14:59;18.10;99.90
45983;DHT22;31711;47.158;7.346;2023-09-12T06:17:25;18.10;99.90
45983;DHT22;31711;47.158;7.346;2023-09-12T06:19:51;18.10;99.90
45983;DHT22;31711;47.158;7.346;2023-09-12T06:22:17;18.10;99.90
45983;DHT22;31711;47.158;7.346;2023-09-12T06:24:44;18.20;99.90
45983;DHT22;31711;47.158;7.346;2023-09-12T06:27:10;18.30;99.90
45983;DHT22;31711;47.158;7.346;2023-09-12T06:29:39;18.50;99.90
45983;DHT22;31711;47.158;7.346;2023-09-12T06:32:05;18.50;99.90
45983;DHT22;31711;47.158;7.346;2023-09-12T06:34:31;18.40;99.90
45983;DHT22;31711;47.158;7.346;2023-09-12T06:36:57;18.30;99.90
45983;DHT22;31711;47.158;7.346;2023-09-12T06:39:23;18.40;99.90
45983;DHT22;31711;47.158;7.346;2023-09-12T06:41:50;18.50;99.90
45983;DHT22;31711;47.158;7.346;2023-09-12T06:44:16;18.50;99.90
45983;DHT22;31711;47.158;7.346;2023-09-12T06:46:42;18.60;99.90
45983;DHT22;31711;47.158;7.346;2023-09-12T06:49:08;18.70;99.90
45983;DHT22;31711;47.158;7.346;2023-09-12T06:51:33;18.70;99.90
45983;DHT22;31711;47.158;7.346;2023-09-12T06:53:59;18.90;99.90
45983;DHT22;31711;47.158;7.346;2023-09-12T06:56:25;19.00;99.90
45983;DHT22;31711;47.158;7.346;2023-09-12T06:58:52;19.10;99.90
45983;DHT22;31711;47.158;7.346;2023-09-12T07:01:20;19.20;99.90
45983;DHT22;31711;47.158;7.346;2023-09-12T07:03:46;19.20;99.90
45983;DHT22;31711;47.158;7.346;2023-09-12T07:06:12;19.30;99.90
45983;DHT22;31711;47.158;7.346;2023-09-12T07:08:39;19.40;99.90
45983;DHT22;31711;47.158;7.346;2023-09-12T07:11:05;19.50;99.90
45983;DHT22;31711;47.158;7.346;2023-09-12T07:13:32;19.50;99.90
45983;DHT22;31711;47.158;7.346;2023-09-12T07:15:59;19.70;99.90
45983;DHT22;31711;47.158;7.346;2023-09-12T07:18:25;19.70;99.90
45983;DHT22;31711;47.158;7.346;2023-09-12T07:21:02;19.80;99.90
45983;DHT22;31711;47.158;7.346;2023-09-12T07:23:28;20.00;99.90
45983;DHT22;31711;47.158;7.346;2023-09-12T07:25:55;20.20;99.90
45983;DHT22;31711;47.158;7.346;2023-09-12T07:28:24;20.30;99.90
45983;DHT22;31711;47.158;7.346;2023-09-12T07:30:50;20.40;99.90
45983;DHT22;31711;47.158;7.346;2023-09-12T07:33:16;20.50;99.90
45983;DHT22;31711;47.158;7.346;2023-09-12T07:35:42;20.60;99.90
45983;DHT22;31711;47.158;7.346;2023-09-12T07:38:08;20.70;99.90
45983;DHT22;31711;47.158;7.346;2023-09-12T07:40:34;20.90;99.90
45983;DHT22;31711;47.158;7.346;2023-09-12T07:42:59;21.20;99.90
45983;DHT22;31711;47.158;7.346;2023-09-12T07:45:25;21.40;99.90
45983;DHT22;31711;47.158;7.346;2023-09-12T07:47:51;21.60;99.90
45983;DHT22;31711;47.158;7.346;2023-09-12T07:50:18;21.80;99.90
45983;DHT22;31711;47.158;7.346;2023-09-12T07:52:44;21.90;99.90
45983;DHT22;31711;47.158;7.346;2023-09-12T07:55:10;22.10;99.90
45983;DHT22;31711;47.158;7.346;2023-09-12T07:57:36;22.10;99.90
45983;DHT22;31711;47.158;7.346;2023-09-12T08:00:03;22.20;99.90
45983;DHT22;31711;47.158;7.346;2023-09-12T08:02:30;22.20;99.90
45983;DHT22;31711;47.158;7.346;2023-09-12T08:04:56;22.40;99.90
45983;DHT22;31711;47.158;7.346;2023-09-12T08:07:22;22.60;99.90
45983;DHT22;31711;47.158;7.346;2023-09-12T08:09:56;22.30;99.90
45983;DHT22;31711;47.158;7.346;2023-09-12T08:12:24;22.10;99.90
45983;DHT22;31711;47.158;7.346;2023-09-12T08:14:51;22.10;99.90
45983;DHT22;31711;47.158;7.346;2023-09-12T08:17:18;22.20;99.90
45983;DHT22;31711;47.158;7.346;2023-09-12T08:19:45;22.30;99.90
45983;DHT22;31711;47.158;7.346;2023-09-12T08:22:12;22.50;99.90
45983;DHT22;31711;47.158;7.346;2023-09-12T08:24:38;22.50;99.90
45983;DHT22;31711;47.158;7.346;2023-09-12T08:27:05;22.70;99.90
45983;DHT22;31711;47.158;7.346;2023-09-12T08:29:32;22.70;99.90
45983;DHT22;31711;47.158;7.346;2023-09-12T08:31:58;22.90;99.90
45983;DHT22;31711;47.158;7.346;2023-09-12T08:34:25;23.00;99.90
45983;DHT22;31711;47.158;7.346;2023-09-12T08:36:51;23.20;99.90
45983;DHT22;31711;47.158;7.346;2023-09-12T08:39:23;23.40;99.90
45983;DHT22;31711;47.158;7.346;2023-09-12T08:41:50;23.50;99.90
45983;DHT22;31711;47.158;7.346;2023-09-12T08:44:16;23.80;99.90
45983;DHT22;31711;47.158;7.346;2023-09-12T08:46:42;23.90;99.90
45983;DHT22;31711;47.158;7.346;2023-09-12T08:49:10;23.80;99.90
45983;DHT22;31711;47.158;7.346;2023-09-12T08:51:39;23.90;99.90
45983;DHT22;31711;47.158;7.346;2023-09-12T08:54:06;23.80;99.90
45983;DHT22;31711;47.158;7.346;2023-09-12T08:56:35;23.90;99.90
45983;DHT22;31711;47.158;7.346;2023-09-12T08:59:02;24.00;99.90
45983;DHT22;31711;47.158;7.346;2023-09-12T09:01:32;24.20;99.90
45983;DHT22;31711;47.158;7.346;2023-09-12T09:04:02;24.40;99.90
45983;DHT22;31711;47.158;7.346;2023-09-12T09:06:32;24.30;99.90
45983;DHT22;31711;47.158;7.346;2023-09-12T09:09:02;24.30;99.90
45983;DHT22;31711;47.158;7.346;2023-09-12T09:11:29;24.40;99.90
45983;DHT22;31711;47.158;7.346;2023-09-12T09:13:55;24.40;99.90
45983;DHT22;31711;47.158;7.346;2023-09-12T09:16:23;24.40;99.90
45983;DHT22;31711;47.158;7.346;2023-09-12T09:21:22;24.40;99.90
45983;DHT22;31711;47.158;7.346;2023-09-12T09:23:53;24.40;99.90
45983;DHT22;31711;47.158;7.346;2023-09-12T09:26:19;24.10;99.90
45983;DHT22;31711;47.158;7.346;2023-09-12T09:28:45;24.20;99.90
45983;DHT22;31711;47.158;7.346;2023-09-12T09:31:13;24.20;99.90
45983;DHT22;31711;47.158;7.346;2023-09-12T09:33:42;24.30;99.90
45983;DHT22;31711;47.158;7.346;2023-09-12T09:36:16;24.40;99.90
45983;DHT22;31711;47.158;7.346;2023-09-12T09:38:43;24.50;99.90
45983;DHT22;31711;47.158;7.346;2023-09-12T09:41:09;24.70;99.90
45983;DHT22;31711;47.158;7.346;2023-09-12T09:43:35;24.70;99.90
45983;DHT22;31711;47.158;7.346;2023-09-12T09:46:03;24.70;99.90
45983;DHT22;31711;47.158;7.346;2023-09-12T09:48:29;24.80;99.90
45983;DHT22;31711;47.158;7.346;2023-09-12T09:51:02;24.80;99.90
45983;DHT22;31711;47.158;7.346;2023-09-12T09:53:32;24.80;99.90
45983;DHT22;31711;47.158;7.346;2023-09-12T09:56:14;24.80;99.90
45983;DHT22;31711;47.158;7.346;2023-09-12T09:58:54;24.80;99.90
45983;DHT22;31711;47.158;7.346;2023-09-12T10:01:22;24.90;99.90
45983;DHT22;31711;47.158;7.346;2023-09-12T10:03:52;24.90;99.90
45983;DHT22;31711;47.158;7.346;2023-09-12T10:06:19;25.20;99.90
45983;DHT22;31711;47.158;7.346;2023-09-12T10:08:50;25.30;99.90
45983;DHT22;31711;47.158;7.346;2023-09-12T10:11:16;25.40;99.90
45983;DHT22;31711;47.158;7.346;2023-09-12T10:14:06;25.40;99.90
45983;DHT22;31711;47.158;7.346;2023-09-12T10:16:44;25.40;99.90
45983;DHT22;31711;47.158;7.346;2023-09-12T10:19:11;25.50;99.90
45983;DHT22;31711;47.158;7.346;2023-09-12T10:21:50;25.60;99.90
45983;DHT22;31711;47.158;7.346;2023-09-12T10:24:19;25.80;99.90
45983;DHT22;31711;47.158;7.346;2023-09-12T10:26:49;25.80;99.90
45983;DHT22;31711;47.158;7.346;2023-09-12T10:29:16;26.00;99.90
45983;DHT22;31711;47.158;7.346;2023-09-12T10:31:42;26.00;99.90
45983;DHT22;31711;47.158;7.346;2023-09-12T10:34:10;26.00;99.90
45983;DHT22;31711;47.158;7.346;2023-09-12T10:36:39;26.10;99.90
45983;DHT22;31711;47.158;7.346;2023-09-12T10:39:07;26.30;99.90
45983;DHT22;31711;47.158;7.346;2023-09-12T10:41:37;26.70;99.90
45983;DHT22;31711;47.158;7.346;2023-09-12T10:44:09;26.90;99.90
45983;DHT22;31711;47.158;7.346;2023-09-12T10:46:40;26.80;99.90
45983;DHT22;31711;47.158;7.346;2023-09-12T10:49:07;26.70;99.90
45983;DHT22;31711;47.158;7.346;2023-09-12T10:51:41;26.70;99.90
45983;DHT22;31711;47.158;7.346;2023-09-12T10:54:09;26.60;99.90
45983;DHT22;31711;47.158;7.346;2023-09-12T10:56:38;26.70;99.90
45983;DHT22;31711;47.158;7.346;2023-09-12T11:01:31;26.60;99.90
45983;DHT22;31711;47.158;7.346;2023-09-12T11:03:57;26.40;99.90
45983;DHT22;31711;47.158;7.346;2023-09-12T11:06:28;26.40;99.90
45983;DHT22;31711;47.158;7.346;2023-09-12T11:11:48;26.20;99.90
45983;DHT22;31711;47.158;7.346;2023-09-12T11:14:15;26.20;99.90
45983;DHT22;31711;47.158;7.346;2023-09-12T11:19:46;26.50;99.90
45983;DHT22;31711;47.158;7.346;2023-09-12T11:22:28;26.60;99.90
45983;DHT22;31711;47.158;7.346;2023-09-12T11:24:57;26.70;99.90
45983;DHT22;31711;47.158;7.346;2023-09-12T11:27:25;26.90;99.90
45983;DHT22;31711;47.158;7.346;2023-09-12T11:30:04;27.20;98.80
45983;DHT22;31711;47.158;7.346;2023-09-12T11:32:36;27.50;99.60
45983;DHT22;31711;47.158;7.346;2023-09-12T11:35:09;27.70;98.50
45983;DHT22;31711;47.158;7.346;2023-09-12T11:37:36;27.50;98.20
45983;DHT22;31711;47.158;7.346;2023-09-12T11:42:40;26.80;99.70
45983;DHT22;31711;47.158;7.346;2023-09-12T11:45:08;26.50;99.30
45983;DHT22;31711;47.158;7.346;2023-09-12T11:47:39;26.60;99.90
45983;DHT22;31711;47.158;7.346;2023-09-12T11:50:05;26.90;99.10
45983;DHT22;31711;47.158;7.346;2023-09-12T11:52:35;26.90;98.70
45983;DHT22;31711;47.158;7.346;2023-09-12T11:55:01;26.80;97.90
45983;DHT22;31711;47.158;7.346;2023-09-12T11:57:27;27.00;97.80
45983;DHT22;31711;47.158;7.346;2023-09-12T11:59:53;26.90;98.60
45983;DHT22;31711;47.158;7.346;2023-09-12T12:02:19;27.00;98.60
45983;DHT22;31711;47.158;7.346;2023-09-12T12:04:45;27.00;98.40
45983;DHT22;31711;47.158;7.346;2023-09-12T12:07:13;27.20;98.70
45983;DHT22;31711;47.158;7.346;2023-09-12T12:09:39;27.20;98.90
45983;DHT22;31711;47.158;7.346;2023-09-12T12:12:12;27.50;98.90
45983;DHT22;31711;47.158;7.346;2023-09-12T12:14:40;27.60;97.70
45983;DHT22;31711;47.158;7.346;2023-09-12T12:17:08;27.60;98.40
45983;DHT22;31711;47.158;7.346;2023-09-12T12:19:34;27.60;98.60
45983;DHT22;31711;47.158;7.346;2023-09-12T12:22:03;27.70;97.40
45983;DHT22;31711;47.158;7.346;2023-09-12T12:24:43;27.50;97.40
45983;DHT22;31711;47.158;7.346;2023-09-12T12:27:09;27.40;98.00
45983;DHT22;31711;47.158;7.346;2023-09-12T12:29:37;27.30;98.10
45983;DHT22;31711;47.158;7.346;2023-09-12T12:32:05;27.70;98.00
45983;DHT22;31711;47.158;7.346;2023-09-12T12:34:32;27.80;98.30
45983;DHT22;31711;47.158;7.346;2023-09-12T12:36:58;27.90;98.00
45983;DHT22;31711;47.158;7.346;2023-09-12T12:39:24;28.20;98.00
45983;DHT22;31711;47.158;7.346;2023-09-12T12:41:54;28.20;97.40
45983;DHT22;31711;47.158;7.346;2023-09-12T12:44:21;28.30;96.40
45983;DHT22;31711;47.158;7.346;2023-09-12T12:46:52;28.30;96.60
45983;DHT22;31711;47.158;7.346;2023-09-12T12:49:19;28.00;97.00
45983;DHT22;31711;47.158;7.346;2023-09-12T12:51:46;27.90;98.00
45983;DHT22;31711;47.158;7.346;2023-09-12T12:54:12;27.80;97.80
45983;DHT22;31711;47.158;7.346;2023-09-12T12:56:39;27.70;98.10
45983;DHT22;31711;47.158;7.346;2023-09-12T12:59:07;27.70;98.00
45983;DHT22;31711;47.158;7.346;2023-09-12T13:01:35;27.70;97.90
45983;DHT22;31711;47.158;7.346;2023-09-12T13:04:04;27.60;98.20
45983;DHT22;31711;47.158;7.346;2023-09-12T13:06:30;27.40;97.70
45983;DHT22;31711;47.158;7.346;2023-09-12T13:08:56;27.50;98.60
45983;DHT22;31711;47.158;7.346;2023-09-12T13:11:23;27.60;98.20
45983;DHT22;31711;47.158;7.346;2023-09-12T13:13:49;27.90;99.30
45983;DHT22;31711;47.158;7.346;2023-09-12T13:16:15;28.00;98.30
45983;DHT22;31711;47.158;7.346;2023-09-12T13:18:42;28.10;97.80
45983;DHT22;31711;47.158;7.346;2023-09-12T13:21:08;28.20;98.50
45983;DHT22;31711;47.158;7.346;2023-09-12T13:23:36;28.30;98.70
45983;DHT22;31711;47.158;7.346;2023-09-12T13:26:03;28.40;97.80
45983;DHT22;31711;47.158;7.346;2023-09-12T13:28:29;28.40;98.30
45983;DHT22;31711;47.158;7.346;2023-09-12T13:30:55;28.60;97.90
45983;DHT22;31711;47.158;7.346;2023-09-12T13:33:21;28.70;97.60
45983;DHT22;31711;47.158;7.346;2023-09-12T13:35:50;28.70;97.30
45983;DHT22;31711;47.158;7.346;2023-09-12T13:38:17;28.90;97.80
45983;DHT22;31711;47.158;7.346;2023-09-12T13:40:46;29.10;97.90
45983;DHT22;31711;47.158;7.346;2023-09-12T13:43:12;29.40;97.80
45983;DHT22;31711;47.158;7.346;2023-09-12T13:45:39;29.50;96.30
45983;DHT22;31711;47.158;7.346;2023-09-12T13:48:06;29.50;96.90
45983;DHT22;31711;47.158;7.346;2023-09-12T13:50:32;29.50;96.30
45983;DHT22;31711;47.158;7.346;2023-09-12T13:52:59;29.60;96.00
45983;DHT22;31711;47.158;7.346;2023-09-12T13:55:35;29.60;96.20
45983;DHT22;31711;47.158;7.346;2023-09-12T13:58:05;29.50;95.70
45983;DHT22;31711;47.158;7.346;2023-09-12T14:00:33;29.60;95.20
45983;DHT22;31711;47.158;7.346;2023-09-12T14:03:00;29.50;95.10
45983;DHT22;31711;47.158;7.346;2023-09-12T14:05:26;29.80;95.30
45983;DHT22;31711;47.158;7.346;2023-09-12T14:07:52;29.90;94.60
45983;DHT22;31711;47.158;7.346;2023-09-12T14:10:18;30.00;94.50
45983;DHT22;31711;47.158;7.346;2023-09-12T14:12:44;30.00;95.40
45983;DHT22;31711;47.158;7.346;2023-09-12T14:15:11;30.30;95.10
45983;DHT22;31711;47.158;7.346;2023-09-12T14:17:37;30.40;94.80
45983;DHT22;31711;47.158;7.346;2023-09-12T14:20:04;30.40;94.40
45983;DHT22;31711;47.158;7.346;2023-09-12T14:22:30;30.50;94.40
45983;DHT22;31711;47.158;7.346;2023-09-12T14:24:56;30.60;94.10
45983;DHT22;31711;47.158;7.346;2023-09-12T14:27:22;30.60;94.20
45983;DHT22;31711;47.158;7.346;2023-09-12T14:29:48;30.70;93.60
45983;DHT22;31711;47.158;7.346;2023-09-12T14:32:15;30.80;93.70
45983;DHT22;31711;47.158;7.346;2023-09-12T14:34:41;30.60;93.60
45983;DHT22;31711;47.158;7.346;2023-09-12T14:37:07;30.70;93.60
45983;DHT22;31711;47.158;7.346;2023-09-12T14:39:33;30.80;93.30
45983;DHT22;31711;47.158;7.346;2023-09-12T14:41:59;30.80;92.90
45983;DHT22;31711;47.158;7.346;2023-09-12T14:44:27;30.80;92.90
45983;DHT22;31711;47.158;7.346;2023-09-12T14:46:54;30.80;93.10
45983;DHT22;31711;47.158;7.346;2023-09-12T14:49:20;30.80;93.20
45983;DHT22;31711;47.158;7.346;2023-09-12T14:51:46;30.70;93.40
45983;DHT22;31711;47.158;7.346;2023-09-12T14:54:12;30.60;93.10
45983;DHT22;31711;47.158;7.346;2023-09-12T14:56:38;30.60;92.50
45983;DHT22;31711;47.158;7.346;2023-09-12T14:59:05;30.30;93.50
45983;DHT22;31711;47.158;7.346;2023-09-12T15:01:31;30.30;93.00
45983;DHT22;31711;47.158;7.346;2023-09-12T15:03:57;30.30;93.60
45983;DHT22;31711;47.158;7.346;2023-09-12T15:06:23;30.30;93.50
45983;DHT22;31711;47.158;7.346;2023-09-12T15:08:50;30.20;93.00
45983;DHT22;31711;47.158;7.346;2023-09-12T15:11:16;30.20;93.40
45983;DHT22;31711;47.158;7.346;2023-09-12T15:13:42;30.00;93.20
45983;DHT22;31711;47.158;7.346;2023-09-12T15:16:08;29.90;92.40
45983;DHT22;31711;47.158;7.346;2023-09-12T15:18:34;29.80;92.00
45983;DHT22;31711;47.158;7.346;2023-09-12T15:21:01;29.70;92.20
45983;DHT22;31711;47.158;7.346;2023-09-12T15:23:27;29.60;92.50
45983;DHT22;31711;47.158;7.346;2023-09-12T15:25:54;29.60;93.10
45983;DHT22;31711;47.158;7.346;2023-09-12T15:28:20;29.60;93.50
45983;DHT22;31711;47.158;7.346;2023-09-12T15:30:46;29.60;92.00
45983;DHT22;31711;47.158;7.346;2023-09-12T15:33:12;29.50;92.10
45983;DHT22;31711;47.158;7.346;2023-09-12T15:35:38;29.50;92.40
45983;DHT22;31711;47.158;7.346;2023-09-12T15:38:05;29.40;92.60
45983;DHT22;31711;47.158;7.346;2023-09-12T15:40:32;29.40;92.40
45983;DHT22;31711;47.158;7.346;2023-09-12T15:42:58;29.20;92.90
45983;DHT22;31711;47.158;7.346;2023-09-12T15:45:24;29.10;92.20
45983;DHT22;31711;47.158;7.346;2023-09-12T15:47:51;29.10;92.70
45983;DHT22;31711;47.158;7.346;2023-09-12T15:50:17;29.00;92.10